sensor_id;sensor_type;location;lat;lon;timestamp;pressure;altitude;pressure_sealevel;temperature;humidity
15529;BME280;7866;52.280;9.500;2023-06-22T00:01:34;100661.38;;;20.74;72.06
15529;BME280;7866;52.280;9.500;2023-06-22T00:06:36;100655.78;;;20.87;71.69
15529;BME280;7866;52.280;9.500;2023-06-22T00:11:38;100671.66;;;20.72;71.90
15529;BME280;7866;52.280;9.500;2023-06-22T00:16:41;100671.16;;;20.63;72.15
15529;BME280;7866;52.280;9.500;2023-06-22T00:21:43;100672.97;;;20.51;72.46
15529;BME280;7866;52.280;9.500;2023-06-22T00:26:47;100673.84;;;20.27;74.05
15529;BME280;7866;52.280;9.500;2023-06-22T00:31:50;100663.59;;;20.22;74.13
15529;BME280;7866;52.280;9.500;2023-06-22T00:36:52;100661.50;;;20.42;73.06
15529;BME280;7866;52.280;9.500;2023-06-22T00:41:54;100654.41;;;20.41;72.67
15529;BME280;7866;52.280;9.500;2023-06-22T00:46:58;100641.25;;;20.20;73.64
15529;BME280;7866;52.280;9.500;2023-06-22T00:52:00;100631.72;;;20.29;73.29
15529;BME280;7866;52.280;9.500;2023-06-22T00:57:02;100643.72;;;20.22;73.66
15529;BME280;7866;52.280;9.500;2023-06-22T01:02:05;100631.72;;;20.11;74.24
15529;BME280;7866;52.280;9.500;2023-06-22T01:07:12;100626.41;;;19.98;74.69
15529;BME280;7866;52.280;9.500;2023-06-22T01:12:21;100620.81;;;19.92;74.83
15529;BME280;7866;52.280;9.500;2023-06-22T01:17:24;100615.63;;;19.91;74.67
15529;BME280;7866;52.280;9.500;2023-06-22T01:22:30;100608.97;;;19.87;74.87
15529;BME280;7866;52.280;9.500;2023-06-22T01:27:40;100616.75;;;20.02;74.52
15529;BME280;7866;52.280;9.500;2023-06-22T01:32:50;100632.38;;;19.88;74.82
15529;BME280;7866;52.280;9.500;2023-06-22T01:37:53;100631.41;;;20.01;74.49
15529;BME280;7866;52.280;9.500;2023-06-22T01:42:55;100613.88;;;19.97;73.81
15529;BME280;7866;52.280;9.500;2023-06-22T01:47:58;100606.72;;;19.77;74.90
15529;BME280;7866;52.280;9.500;2023-06-22T01:53:01;100616.53;;;19.78;75.34
15529;BME280;7866;52.280;9.500;2023-06-22T01:58:02;100607.84;;;19.69;75.24
15529;BME280;7866;52.280;9.500;2023-06-22T02:03:10;100614.72;;;19.72;75.33
15529;BME280;7866;52.280;9.500;2023-06-22T02:08:15;100615.41;;;19.61;76.15
15529;BME280;7866;52.280;9.500;2023-06-22T02:13:19;100615.31;;;19.74;75.68
15529;BME280;7866;52.280;9.500;2023-06-22T02:18:22;100615.59;;;19.66;75.91
15529;BME280;7866;52.280;9.500;2023-06-22T02:23:24;100615.41;;;19.61;76.07
15529;BME280;7866;52.280;9.500;2023-06-22T02:28:25;100615.75;;;19.46;76.78
15529;BME280;7866;52.280;9.500;2023-06-22T02:33:28;100612.81;;;19.48;76.99
15529;BME280;7866;52.280;9.500;2023-06-22T02:38:30;100631.44;;;19.44;77.08
15529;BME280;7866;52.280;9.500;2023-06-22T02:43:34;100643.53;;;19.48;77.01
15529;BME280;7866;52.280;9.500;2023-06-22T02:48:37;100634.16;;;19.44;76.77
15529;BME280;7866;52.280;9.500;2023-06-22T02:53:39;100648.56;;;19.44;77.19
15529;BME280;7866;52.280;9.500;2023-06-22T02:58:44;100654.81;;;19.45;76.75
15529;BME280;7866;52.280;9.500;2023-06-22T03:03:47;100655.50;;;19.40;76.80
15529;BME280;7866;52.280;9.500;2023-06-22T03:08:50;100654.03;;;19.38;77.02
15529;BME280;7866;52.280;9.500;2023-06-22T03:13:52;100654.25;;;19.36;77.48
15529;BME280;7866;52.280;9.500;2023-06-22T03:18:55;100651.97;;;19.33;77.59
15529;BME280;7866;52.280;9.500;2023-06-22T03:23:57;100652.59;;;19.35;77.77
15529;BME280;7866;52.280;9.500;2023-06-22T03:28:58;100651.44;;;19.50;77.12
15529;BME280;7866;52.280;9.500;2023-06-22T03:34:01;100651.41;;;19.56;77.05
15529;BME280;7866;52.280;9.500;2023-06-22T03:39:03;100649.28;;;19.65;76.90
15529;BME280;7866;52.280;9.500;2023-06-22T03:44:04;100640.53;;;19.63;76.90
15529;BME280;7866;52.280;9.500;2023-06-22T03:49:07;100649.44;;;19.70;77.03
15529;BME280;7866;52.280;9.500;2023-06-22T03:54:09;100630.97;;;19.79;76.76
15529;BME280;7866;52.280;9.500;2023-06-22T03:59:11;100648.16;;;19.98;76.42
15529;BME280;7866;52.280;9.500;2023-06-22T04:04:14;100646.50;;;19.97;76.35
15529;BME280;7866;52.280;9.500;2023-06-22T04:09:15;100650.97;;;20.09;76.16
15529;BME280;7866;52.280;9.500;2023-06-22T04:14:17;100655.38;;;20.29;75.75
15529;BME280;7866;52.280;9.500;2023-06-22T04:19:20;100646.78;;;20.32;75.82
15529;BME280;7866;52.280;9.500;2023-06-22T04:24:22;100648.06;;;20.29;76.07
15529;BME280;7866;52.280;9.500;2023-06-22T04:29:24;100656.44;;;20.46;75.91
15529;BME280;7866;52.280;9.500;2023-06-22T04:34:30;100662.88;;;20.70;75.43
15529;BME280;7866;52.280;9.500;2023-06-22T04:39:32;100662.00;;;20.76;75.34
15529;BME280;7866;52.280;9.500;2023-06-22T04:44:34;100654.19;;;20.80;75.72
15529;BME280;7866;52.280;9.500;2023-06-22T04:49:37;100660.19;;;21.30;74.51
15529;BME280;7866;52.280;9.500;2023-06-22T04:54:40;100658.78;;;21.28;74.83
15529;BME280;7866;52.280;9.500;2023-06-22T04:59:47;100655.34;;;21.51;73.64
15529;BME280;7866;52.280;9.500;2023-06-22T05:04:50;100656.66;;;21.60;72.53
15529;BME280;7866;52.280;9.500;2023-06-22T05:09:53;100659.91;;;22.27;70.88
15529;BME280;7866;52.280;9.500;2023-06-22T05:14:54;100647.69;;;22.94;68.88
15529;BME280;7866;52.280;9.500;2023-06-22T05:19:57;100636.41;;;22.38;70.52
15529;BME280;7866;52.280;9.500;2023-06-22T05:24:59;100641.06;;;22.14;71.68
15529;BME280;7866;52.280;9.500;2023-06-22T05:30:00;100633.47;;;22.28;71.54
15529;BME280;7866;52.280;9.500;2023-06-22T05:35:04;100632.22;;;22.59;70.95
15529;BME280;7866;52.280;9.500;2023-06-22T05:40:07;100631.56;;;22.80;69.98
15529;BME280;7866;52.280;9.500;2023-06-22T05:45:10;100644.06;;;22.65;69.93
15529;BME280;7866;52.280;9.500;2023-06-22T05:50:13;100641.25;;;21.89;72.89
15529;BME280;7866;52.280;9.500;2023-06-22T05:55:14;100632.72;;;22.09;73.54
15529;BME280;7866;52.280;9.500;2023-06-22T06:00:19;100632.75;;;23.13;70.28
15529;BME280;7866;52.280;9.500;2023-06-22T06:05:23;100639.47;;;23.68;69.33
15529;BME280;7866;52.280;9.500;2023-06-22T06:10:26;100635.69;;;23.23;69.53
15529;BME280;7866;52.280;9.500;2023-06-22T06:15:28;100634.47;;;23.02;70.72
15529;BME280;7866;52.280;9.500;2023-06-22T06:20:31;100627.66;;;22.76;71.95
15529;BME280;7866;52.280;9.500;2023-06-22T06:25:33;100620.47;;;22.99;71.70
15529;BME280;7866;52.280;9.500;2023-06-22T06:30:34;100606.50;;;23.12;71.83
15529;BME280;7866;52.280;9.500;2023-06-22T06:35:38;100601.84;;;23.58;70.37
15529;BME280;7866;52.280;9.500;2023-06-22T06:40:40;100611.16;;;23.74;69.59
15529;BME280;7866;52.280;9.500;2023-06-22T06:45:42;100616.69;;;23.62;69.14
15529;BME280;7866;52.280;9.500;2023-06-22T06:50:45;100601.66;;;23.48;70.67
15529;BME280;7866;52.280;9.500;2023-06-22T06:55:46;100614.09;;;23.39;71.08
15529;BME280;7866;52.280;9.500;2023-06-22T07:00:48;100612.78;;;23.58;70.64
15529;BME280;7866;52.280;9.500;2023-06-22T07:05:51;100619.31;;;24.29;68.76
15529;BME280;7866;52.280;9.500;2023-06-22T07:10:55;100627.97;;;24.82;66.90
15529;BME280;7866;52.280;9.500;2023-06-22T07:15:57;100624.97;;;24.83;66.56
15529;BME280;7866;52.280;9.500;2023-06-22T07:21:00;100617.34;;;24.42;67.45
15529;BME280;7866;52.280;9.500;2023-06-22T07:26:04;100613.28;;;23.72;69.40
15529;BME280;7866;52.280;9.500;2023-06-22T07:31:06;100610.03;;;23.58;70.18
15529;BME280;7866;52.280;9.500;2023-06-22T07:36:09;100595.84;;;23.61;69.91
15529;BME280;7866;52.280;9.500;2023-06-22T07:41:11;100603.66;;;24.03;69.13
15529;BME280;7866;52.280;9.500;2023-06-22T07:46:13;100611.16;;;23.74;68.35
15529;BME280;7866;52.280;9.500;2023-06-22T07:51:16;100612.59;;;23.81;67.64
15529;BME280;7866;52.280;9.500;2023-06-22T07:56:17;100605.69;;;24.13;67.06
15529;BME280;7866;52.280;9.500;2023-06-22T08:01:20;100609.38;;;23.84;66.77
15529;BME280;7866;52.280;9.500;2023-06-22T08:06:23;100611.09;;;24.07;66.80
15529;BME280;7866;52.280;9.500;2023-06-22T08:11:25;100609.94;;;24.03;66.15
15529;BME280;7866;52.280;9.500;2023-06-22T08:16:26;100613.78;;;24.24;65.47
15529;BME280;7866;52.280;9.500;2023-06-22T08:21:29;100610.94;;;24.36;65.79
15529;BME280;7866;52.280;9.500;2023-06-22T08:26:31;100608.31;;;24.24;65.98
15529;BME280;7866;52.280;9.500;2023-06-22T08:31:36;100609.97;;;24.25;65.89
15529;BME280;7866;52.280;9.500;2023-06-22T08:36:39;100615.59;;;24.36;65.59
15529;BME280;7866;52.280;9.500;2023-06-22T08:41:45;100608.56;;;24.40;65.29
15529;BME280;7866;52.280;9.500;2023-06-22T08:46:46;100600.94;;;24.91;65.44
15529;BME280;7866;52.280;9.500;2023-06-22T08:51:49;100590.53;;;25.15;64.75
15529;BME280;7866;52.280;9.500;2023-06-22T08:56:53;100596.44;;;24.79;65.10
15529;BME280;7866;52.280;9.500;2023-06-22T09:01:55;100606.22;;;24.31;67.23
15529;BME280;7866;52.280;9.500;2023-06-22T09:06:58;100584.88;;;24.33;67.03
15529;BME280;7866;52.280;9.500;2023-06-22T09:12:00;100576.97;;;24.81;66.14
15529;BME280;7866;52.280;9.500;2023-06-22T09:17:01;100569.97;;;24.90;65.56
15529;BME280;7866;52.280;9.500;2023-06-22T09:22:05;100569.38;;;24.88;65.92
15529;BME280;7866;52.280;9.500;2023-06-22T09:27:07;100556.41;;;25.33;64.40
15529;BME280;7866;52.280;9.500;2023-06-22T09:32:09;100555.75;;;25.20;65.53
15529;BME280;7866;52.280;9.500;2023-06-22T09:37:12;100576.66;;;25.26;65.22
15529;BME280;7866;52.280;9.500;2023-06-22T09:42:13;100566.03;;;25.08;65.91
15529;BME280;7866;52.280;9.500;2023-06-22T09:47:15;100556.81;;;25.14;65.69
15529;BME280;7866;52.280;9.500;2023-06-22T09:52:18;100550.69;;;25.39;65.28
15529;BME280;7866;52.280;9.500;2023-06-22T09:57:19;100555.03;;;25.30;66.01
15529;BME280;7866;52.280;9.500;2023-06-22T10:02:21;100548.72;;;25.02;66.13
15529;BME280;7866;52.280;9.500;2023-06-22T10:07:24;100545.97;;;25.02;66.50
15529;BME280;7866;52.280;9.500;2023-06-22T10:12:27;100535.34;;;24.79;66.61
15529;BME280;7866;52.280;9.500;2023-06-22T10:17:28;100530.88;;;25.00;66.51
15529;BME280;7866;52.280;9.500;2023-06-22T10:22:31;100533.88;;;24.98;66.65
15529;BME280;7866;52.280;9.500;2023-06-22T10:27:33;100535.94;;;25.13;66.54
15529;BME280;7866;52.280;9.500;2023-06-22T10:32:37;100535.44;;;25.16;66.76
15529;BME280;7866;52.280;9.500;2023-06-22T10:37:40;100529.13;;;25.16;66.67
15529;BME280;7866;52.280;9.500;2023-06-22T10:42:43;100527.56;;;24.98;67.34
15529;BME280;7866;52.280;9.500;2023-06-22T10:47:45;100530.22;;;25.15;66.73
15529;BME280;7866;52.280;9.500;2023-06-22T10:52:48;100520.16;;;25.25;66.22
15529;BME280;7866;52.280;9.500;2023-06-22T10:57:49;100514.31;;;25.91;64.77
15529;BME280;7866;52.280;9.500;2023-06-22T11:02:52;100512.09;;;25.88;64.29
15529;BME280;7866;52.280;9.500;2023-06-22T11:07:55;100517.78;;;25.34;65.63
15529;BME280;7866;52.280;9.500;2023-06-22T11:12:57;100514.88;;;25.56;64.78
15529;BME280;7866;52.280;9.500;2023-06-22T11:17:58;100504.38;;;25.43;65.84
15529;BME280;7866;52.280;9.500;2023-06-22T11:23:01;100504.03;;;25.76;65.24
15529;BME280;7866;52.280;9.500;2023-06-22T11:28:03;100491.16;;;26.29;63.87
15529;BME280;7866;52.280;9.500;2023-06-22T11:33:05;100480.56;;;26.79;62.91
15529;BME280;7866;52.280;9.500;2023-06-22T11:38:08;100461.00;;;27.52;60.22
15529;BME280;7866;52.280;9.500;2023-06-22T11:43:10;100452.97;;;27.81;59.38
15529;BME280;7866;52.280;9.500;2023-06-22T11:48:11;100448.16;;;28.07;58.77
15529;BME280;7866;52.280;9.500;2023-06-22T11:53:14;100425.31;;;27.16;61.64
15529;BME280;7866;52.280;9.500;2023-06-22T11:58:17;100418.09;;;26.44;63.76
15529;BME280;7866;52.280;9.500;2023-06-22T12:03:20;100416.53;;;26.73;62.55
15529;BME280;7866;52.280;9.500;2023-06-22T12:08:23;100420.38;;;26.83;63.44
15529;BME280;7866;52.280;9.500;2023-06-22T12:13:25;100409.34;;;27.34;62.13
15529;BME280;7866;52.280;9.500;2023-06-22T12:18:26;100403.03;;;27.33;61.35
15529;BME280;7866;52.280;9.500;2023-06-22T12:23:29;100402.63;;;27.75;60.75
15529;BME280;7866;52.280;9.500;2023-06-22T12:28:31;100403.66;;;27.85;60.41
15529;BME280;7866;52.280;9.500;2023-06-22T12:33:32;100396.34;;;28.14;59.95
15529;BME280;7866;52.280;9.500;2023-06-22T12:38:35;100395.25;;;28.15;60.12
15529;BME280;7866;52.280;9.500;2023-06-22T12:43:37;100380.94;;;27.48;61.19
15529;BME280;7866;52.280;9.500;2023-06-22T12:48:39;100360.97;;;27.17;62.06
15529;BME280;7866;52.280;9.500;2023-06-22T12:53:43;100358.22;;;27.12;61.11
15529;BME280;7866;52.280;9.500;2023-06-22T12:58:45;100360.44;;;27.10;62.50
15529;BME280;7866;52.280;9.500;2023-06-22T13:03:47;100361.78;;;27.13;64.71
15529;BME280;7866;52.280;9.500;2023-06-22T13:08:50;100354.94;;;26.85;66.05
15529;BME280;7866;52.280;9.500;2023-06-22T13:13:51;100337.94;;;26.62;68.47
15529;BME280;7866;52.280;9.500;2023-06-22T13:18:53;100350.00;;;26.87;69.03
15529;BME280;7866;52.280;9.500;2023-06-22T13:23:56;100339.56;;;26.38;71.24
15529;BME280;7866;52.280;9.500;2023-06-22T13:28:58;100341.47;;;26.12;72.77
15529;BME280;7866;52.280;9.500;2023-06-22T13:33:59;100356.47;;;25.78;74.45
15529;BME280;7866;52.280;9.500;2023-06-22T13:39:03;100355.16;;;25.96;74.45
15529;BME280;7866;52.280;9.500;2023-06-22T13:44:04;100352.31;;;25.71;76.10
15529;BME280;7866;52.280;9.500;2023-06-22T13:49:06;100328.16;;;25.68;75.64
15529;BME280;7866;52.280;9.500;2023-06-22T13:54:09;100295.47;;;25.61;75.85
15529;BME280;7866;52.280;9.500;2023-06-22T13:59:11;100234.56;;;25.49;76.82
15529;BME280;7866;52.280;9.500;2023-06-22T14:04:12;100255.66;;;25.38;76.47
15529;BME280;7866;52.280;9.500;2023-06-22T14:09:15;100272.88;;;24.76;80.80
15529;BME280;7866;52.280;9.500;2023-06-22T14:14:17;100254.38;;;24.51;82.46
15529;BME280;7866;52.280;9.500;2023-06-22T14:19:18;100231.19;;;24.69;82.80
15529;BME280;7866;52.280;9.500;2023-06-22T14:24:21;100219.72;;;24.72;81.81
15529;BME280;7866;52.280;9.500;2023-06-22T14:29:23;100227.88;;;24.24;84.38
15529;BME280;7866;52.280;9.500;2023-06-22T14:34:25;100260.97;;;24.23;85.18
15529;BME280;7866;52.280;9.500;2023-06-22T14:39:28;100289.81;;;24.36;83.71
15529;BME280;7866;52.280;9.500;2023-06-22T14:44:29;100317.31;;;24.19;84.13
15529;BME280;7866;52.280;9.500;2023-06-22T14:49:31;100326.31;;;24.14;84.29
15529;BME280;7866;52.280;9.500;2023-06-22T14:54:34;100311.97;;;24.02;84.43
15529;BME280;7866;52.280;9.500;2023-06-22T14:59:36;100297.44;;;23.52;87.39
15529;BME280;7866;52.280;9.500;2023-06-22T15:04:37;100263.47;;;23.43;88.95
15529;BME280;7866;52.280;9.500;2023-06-22T15:09:40;100269.88;;;23.32;89.83
15529;BME280;7866;52.280;9.500;2023-06-22T15:14:43;100249.47;;;23.40;88.99
15529;BME280;7866;52.280;9.500;2023-06-22T15:19:44;100231.44;;;23.39;88.60
15529;BME280;7866;52.280;9.500;2023-06-22T15:24:47;100226.97;;;23.32;89.71
15529;BME280;7866;52.280;9.500;2023-06-22T15:29:49;100233.84;;;23.13;89.95
15529;BME280;7866;52.280;9.500;2023-06-22T15:34:51;100258.38;;;23.08;90.40
15529;BME280;7866;52.280;9.500;2023-06-22T15:39:55;100229.59;;;23.00;90.79
15529;BME280;7866;52.280;9.500;2023-06-22T15:44:58;100240.72;;;23.16;89.99
15529;BME280;7866;52.280;9.500;2023-06-22T15:50:00;100202.09;;;23.07;90.60
15529;BME280;7866;52.280;9.500;2023-06-22T15:55:04;100172.50;;;22.99;91.77
15529;BME280;7866;52.280;9.500;2023-06-22T16:00:08;100173.16;;;22.89;92.02
15529;BME280;7866;52.280;9.500;2023-06-22T16:05:14;100159.63;;;22.77;91.09
15529;BME280;7866;52.280;9.500;2023-06-22T16:10:17;100166.63;;;22.68;91.85
15529;BME280;7866;52.280;9.500;2023-06-22T16:15:20;100145.28;;;22.65;92.16
15529;BME280;7866;52.280;9.500;2023-06-22T16:20:21;100109.84;;;22.48;93.54
15529;BME280;7866;52.280;9.500;2023-06-22T16:25:25;100040.19;;;22.41;94.19
15529;BME280;7866;52.280;9.500;2023-06-22T16:30:26;100007.31;;;22.30;95.91
15529;BME280;7866;52.280;9.500;2023-06-22T16:35:28;100031.47;;;22.44;94.44
15529;BME280;7866;52.280;9.500;2023-06-22T16:40:34;100032.03;;;22.46;93.22
15529;BME280;7866;52.280;9.500;2023-06-22T16:45:35;100037.81;;;22.49;93.16
15529;BME280;7866;52.280;9.500;2023-06-22T16:50:37;100069.22;;;22.30;94.12
15529;BME280;7866;52.280;9.500;2023-06-22T16:55:41;100037.63;;;22.34;93.77
15529;BME280;7866;52.280;9.500;2023-06-22T17:00:45;100023.09;;;22.28;93.22
15529;BME280;7866;52.280;9.500;2023-06-22T17:05:47;100033.25;;;22.33;92.65
15529;BME280;7866;52.280;9.500;2023-06-22T17:10:50;100035.97;;;22.33;92.58
15529;BME280;7866;52.280;9.500;2023-06-22T17:15:55;100044.03;;;22.45;91.76
15529;BME280;7866;52.280;9.500;2023-06-22T17:20:57;100053.94;;;22.51;91.16
15529;BME280;7866;52.280;9.500;2023-06-22T17:26:00;100045.13;;;22.44;91.74
15529;BME280;7866;52.280;9.500;2023-06-22T17:31:08;100059.59;;;22.44;91.40
15529;BME280;7866;52.280;9.500;2023-06-22T17:36:11;100052.69;;;22.36;92.20
15529;BME280;7866;52.280;9.500;2023-06-22T17:41:15;100049.31;;;22.29;92.33
15529;BME280;7866;52.280;9.500;2023-06-22T17:46:16;100067.53;;;22.24;92.54
15529;BME280;7866;52.280;9.500;2023-06-22T17:51:18;100077.78;;;22.17;93.74
15529;BME280;7866;52.280;9.500;2023-06-22T17:56:21;100075.97;;;22.05;93.87
15529;BME280;7866;52.280;9.500;2023-06-22T18:01:34;100068.78;;;21.99;95.02
15529;BME280;7866;52.280;9.500;2023-06-22T18:06:37;100078.88;;;21.99;94.63
15529;BME280;7866;52.280;9.500;2023-06-22T18:11:43;100069.13;;;22.03;94.34
15529;BME280;7866;52.280;9.500;2023-06-22T18:16:47;100080.47;;;21.95;94.44
15529;BME280;7866;52.280;9.500;2023-06-22T18:21:49;100080.22;;;21.79;95.73
15529;BME280;7866;52.280;9.500;2023-06-22T18:26:53;100069.22;;;21.74;95.40
15529;BME280;7866;52.280;9.500;2023-06-22T18:31:55;100061.88;;;21.58;95.78
15529;BME280;7866;52.280;9.500;2023-06-22T18:36:59;100074.38;;;21.71;96.31
15529;BME280;7866;52.280;9.500;2023-06-22T18:42:03;100080.13;;;21.74;94.85
15529;BME280;7866;52.280;9.500;2023-06-22T18:47:06;100078.81;;;21.77;94.87
15529;BME280;7866;52.280;9.500;2023-06-22T18:52:14;100081.81;;;21.75;93.71
15529;BME280;7866;52.280;9.500;2023-06-22T18:57:22;100073.13;;;21.78;94.46
15529;BME280;7866;52.280;9.500;2023-06-22T19:02:44;100078.00;;;21.76;94.14
15529;BME280;7866;52.280;9.500;2023-06-22T19:07:57;100088.00;;;21.71;93.83
15529;BME280;7866;52.280;9.500;2023-06-22T19:13:19;100099.06;;;21.64;94.75
15529;BME280;7866;52.280;9.500;2023-06-22T19:18:23;100068.81;;;21.65;94.66
15529;BME280;7866;52.280;9.500;2023-06-22T19:23:29;100036.00;;;21.38;95.72
15529;BME280;7866;52.280;9.500;2023-06-22T19:28:33;100017.78;;;21.27;96.46
15529;BME280;7866;52.280;9.500;2023-06-22T19:33:35;99994.09;;;21.28;96.59
15529;BME280;7866;52.280;9.500;2023-06-22T19:38:38;99963.47;;;21.21;97.49
15529;BME280;7866;52.280;9.500;2023-06-22T19:43:42;99963.88;;;21.12;97.32
15529;BME280;7866;52.280;9.500;2023-06-22T19:48:46;99972.81;;;21.08;97.53
15529;BME280;7866;52.280;9.500;2023-06-22T19:53:48;99978.81;;;21.10;97.07
15529;BME280;7866;52.280;9.500;2023-06-22T19:58:51;99972.13;;;21.01;97.28
15529;BME280;7866;52.280;9.500;2023-06-22T20:03:55;99957.09;;;20.81;98.76
15529;BME280;7866;52.280;9.500;2023-06-22T20:08:56;99949.13;;;20.75;99.81
15529;BME280;7866;52.280;9.500;2023-06-22T20:14:01;99963.22;;;20.88;99.07
15529;BME280;7866;52.280;9.500;2023-06-22T20:19:07;99974.66;;;20.74;99.14
15529;BME280;7866;52.280;9.500;2023-06-22T20:24:10;99950.28;;;20.96;97.34
15529;BME280;7866;52.280;9.500;2023-06-22T20:29:34;99943.34;;;20.88;96.41
15529;BME280;7866;52.280;9.500;2023-06-22T20:34:36;99925.25;;;20.82;97.10
15529;BME280;7866;52.280;9.500;2023-06-22T20:39:38;99911.72;;;20.70;98.49
15529;BME280;7866;52.280;9.500;2023-06-22T20:44:41;99902.66;;;20.64;99.42
15529;BME280;7866;52.280;9.500;2023-06-22T20:49:49;99915.69;;;20.62;99.93
15529;BME280;7866;52.280;9.500;2023-06-22T20:54:51;99913.13;;;20.56;99.86
15529;BME280;7866;52.280;9.500;2023-06-22T20:59:55;99908.06;;;20.48;100.00
15529;BME280;7866;52.280;9.500;2023-06-22T21:04:56;99907.13;;;20.42;100.00
15529;BME280;7866;52.280;9.500;2023-06-22T21:09:58;99906.78;;;20.38;100.00
15529;BME280;7866;52.280;9.500;2023-06-22T21:15:01;99890.56;;;20.43;100.00
15529;BME280;7866;52.280;9.500;2023-06-22T21:20:06;99898.09;;;20.53;100.00
15529;BME280;7866;52.280;9.500;2023-06-22T21:25:09;99887.00;;;20.55;99.63
15529;BME280;7866;52.280;9.500;2023-06-22T21:30:13;99873.50;;;20.48;98.74
15529;BME280;7866;52.280;9.500;2023-06-22T21:35:15;99892.25;;;20.61;98.52
15529;BME280;7866;52.280;9.500;2023-06-22T21:40:17;99913.94;;;20.56;98.17
15529;BME280;7866;52.280;9.500;2023-06-22T21:45:20;99928.53;;;20.38;98.77
15529;BME280;7866;52.280;9.500;2023-06-22T21:50:22;99956.63;;;20.27;100.00
15529;BME280;7866;52.280;9.500;2023-06-22T21:55:23;99965.50;;;20.23;100.00
15529;BME280;7866;52.280;9.500;2023-06-22T22:00:26;99962.78;;;20.23;100.00
15529;BME280;7866;52.280;9.500;2023-06-22T22:05:28;99957.47;;;20.28;100.00
15529;BME280;7866;52.280;9.500;2023-06-22T22:10:31;99959.25;;;20.22;100.00
15529;BME280;7866;52.280;9.500;2023-06-22T22:15:38;99957.28;;;20.06;100.00
15529;BME280;7866;52.280;9.500;2023-06-22T22:20:40;99964.41;;;20.07;100.00
15529;BME280;7866;52.280;9.500;2023-06-22T22:25:41;99959.53;;;20.09;100.00
15529;BME280;7866;52.280;9.500;2023-06-22T22:30:44;99958.63;;;20.03;100.00
15529;BME280;7866;52.280;9.500;2023-06-22T22:35:46;99959.88;;;20.12;100.00
15529;BME280;7866;52.280;9.500;2023-06-22T22:40:48;99963.75;;;20.16;100.00
15529;BME280;7866;52.280;9.500;2023-06-22T22:45:51;99956.25;;;20.07;100.00
15529;BME280;7866;52.280;9.500;2023-06-22T22:50:52;99958.34;;;20.05;100.00
15529;BME280;7866;52.280;9.500;2023-06-22T22:55:54;99961.16;;;20.10;99.95
15529;BME280;7866;52.280;9.500;2023-06-22T23:00:59;99949.59;;;20.03;100.00
15529;BME280;7866;52.280;9.500;2023-06-22T23:06:02;99948.31;;;20.05;100.00
15529;BME280;7866;52.280;9.500;2023-06-22T23:11:04;99938.25;;;20.06;100.00
15529;BME280;7866;52.280;9.500;2023-06-22T23:16:07;99924.09;;;20.04;100.00
15529;BME280;7866;52.280;9.500;2023-06-22T23:21:08;99913.34;;;19.97;100.00
15529;BME280;7866;52.280;9.500;2023-06-22T23:26:10;99900.63;;;19.86;100.00
15529;BME280;7866;52.280;9.500;2023-06-22T23:31:13;99884.66;;;19.89;100.00
15529;BME280;7866;52.280;9.500;2023-06-22T23:36:15;99866.78;;;19.93;100.00
15529;BME280;7866;52.280;9.500;2023-06-22T23:41:17;99855.13;;;19.81;100.00
15529;BME280;7866;52.280;9.500;2023-06-22T23:46:20;99865.97;;;19.93;100.00
15529;BME280;7866;52.280;9.500;2023-06-22T23:51:22;99870.00;;;19.90;100.00
15529;BME280;7866;52.280;9.500;2023-06-22T23:56:24;99864.84;;;19.77;100.00
